33分钟前
罗盘
风向 的 风向 210° Noord Nederlandse Zweefvliegclub 09/27
风: 15 千吨, 4 beaufort
乌云 & 能见度
METAR EHMA 230125Z AUTO 21015KT 8000 NSC 15/14 Q1018

METAR定义 | 嵌入

24小时趋势

航班类别VFRLIFR
温度18 °C13 °C
风速17 千吨0 千吨
风向280°000°
能见度10 公里+0 米
昆士兰州10281018

更多历史数据

下载我们的安卓应用程序

从你的主屏幕上轻松地访问你的航空天气。
只需一次付费,您就可以获得无广告的体验。

您会帮助我们保持Metar-Taf.com正常运行吗?
您的贡献有助于网站的进一步开发并支付费用。

没有更多广告

您是捐款5美元还是更多?然后,我们将永远不会再向您展示广告,这是我们永恒的感谢!
捐赠前先登录

METAR Noord Nederlandse Zweefvliegclub

Noord Nederlandse Zweefvliegclub是Borgercompagnie,荷兰中的格利德菲尔德。 机场有{a,plural,=1{一条跑道} other{#跑道}}: 09/27 (1.300 米)

Noord Nederlandse Zweefvliegclub最近未发布观察结果。相反,我们向您显示74 km的报告AWG-1。 该报告是针对2021年9月23日 03:25, 当地时间进行的。

机场观察

风来自南南西 (210°)方向,速度为15 千吨。

可见度为8 公里。

有没有观察到明显的云。 没有观察到天花板。

温度和风寒是15 °C。 露点为14 °C,相对湿度为94%。 海平面上的气压为1018 压力 (QNH)。

白天

今天,太阳从07:20升起,在19:29降落。 这适用于Noord Nederlandse Zweefvliegclub,世界夏令时可能有所不同。 当地时间与世界标准时间之间的时差为+2 小时。 夏令时目前正在进行中。

您是否要在网站上Noord Nederlandse Zweefvliegclub飞行的天气? 阅读更多   自由!